Time;durP1;ratioP1;P1;durP2;ratioP2;P2;SDS_P1;SDS_P2;PMS_P1;PMS_P2;Temp;Humidity;BMP_temperature;BMP_pressure;BME280_temperature;BME280_humidity;BME280_pressure;Samples;Min_cycle;Max_cycle;Signal;HPM_P1;HPM_P2
2021/10/25 00:02:06;;;;;;;2.70;1.80;;;4.20;98.00;;;;;;5094616;28;20919;-65
2021/10/25 00:04:34;;;;;;;1.70;1.27;;;4.30;98.00;;;;;;5094507;28;20454;-65
2021/10/25 00:07:03;;;;;;;1.70;1.30;;;4.20;98.00;;;;;;5094494;28;20966;-65
2021/10/25 00:09:30;;;;;;;1.77;1.23;;;4.10;98.00;;;;;;5094628;28;20461;-65
2021/10/25 00:11:57;;;;;;;1.20;1.00;;;4.20;98.00;;;;;;5093328;28;20991;-65
2021/10/25 00:14:25;;;;;;;1.30;1.10;;;4.10;98.00;;;;;;5093718;28;20494;-65
2021/10/25 00:16:54;;;;;;;1.63;1.30;;;4.10;98.00;;;;;;5094490;28;20466;-64
2021/10/25 00:19:21;;;;;;;1.67;1.50;;;4.20;98.00;;;;;;5094509;28;20954;-65
2021/10/25 00:21:49;;;;;;;2.07;1.50;;;4.20;98.00;;;;;;5094286;28;20481;-65
2021/10/25 00:24:16;;;;;;;1.20;1.03;;;4.20;98.00;;;;;;5094585;28;20479;-65
2021/10/25 00:26:43;;;;;;;2.23;1.90;;;4.20;98.00;;;;;;5094245;28;20839;-65
2021/10/25 00:29:10;;;;;;;2.30;1.43;;;4.00;98.00;;;;;;5094357;28;20527;-64
2021/10/25 00:31:38;;;;;;;1.30;1.30;;;3.90;98.00;;;;;;5093998;28;20947;-65
2021/10/25 00:34:06;;;;;;;3.20;1.30;;;3.90;98.00;;;;;;5093264;28;20821;-65
2021/10/25 00:36:33;;;;;;;1.50;1.10;;;3.90;98.00;;;;;;5094094;28;20563;-65
2021/10/25 00:39:00;;;;;;;1.30;1.23;;;4.00;98.00;;;;;;5094238;28;20457;-65
2021/10/25 00:41:27;;;;;;;1.67;1.60;;;4.20;98.00;;;;;;5093792;28;20459;-65
2021/10/25 00:43:54;;;;;;;1.93;1.20;;;4.30;98.00;;;;;;5094155;28;20483;-65
2021/10/25 00:46:21;;;;;;;1.50;1.40;;;4.40;98.00;;;;;;5093820;28;20578;-65
2021/10/25 00:48:48;;;;;;;2.80;1.30;;;4.50;98.00;;;;;;5093665;28;20459;-65
2021/10/25 00:51:17;;;;;;;1.20;0.97;;;4.40;98.00;;;;;;5093653;28;20505;-65
2021/10/25 00:53:44;;;;;;;1.20;1.00;;;4.40;98.00;;;;;;5093623;28;20871;-65
2021/10/25 00:56:11;;;;;;;2.90;1.63;;;4.20;98.00;;;;;;5093397;28;20863;-64
2021/10/25 00:58:39;;;;;;;1.30;1.10;;;4.00;98.00;;;;;;5093801;28;20458;-66
2021/10/25 01:01:08;;;;;;;2.07;1.40;;;3.80;98.00;;;;;;5093470;28;20453;-65
2021/10/25 01:03:36;;;;;;;1.70;1.43;;;3.70;98.00;;;;;;5093379;28;21014;-64
2021/10/25 01:06:04;;;;;;;1.20;1.00;;;3.60;98.00;;;;;;5093382;28;20452;-65
2021/10/25 01:08:39;;;;;;;2.13;1.83;;;3.50;98.00;;;;;;5093733;28;20482;-65
2021/10/25 01:11:07;;;;;;;2.47;1.67;;;3.70;98.00;;;;;;5093298;28;20960;-65
2021/10/25 01:13:42;;;;;;;2.70;1.57;;;3.90;98.00;;;;;;5093410;28;20927;-65
2021/10/25 01:16:10;;;;;;;1.60;1.30;;;4.00;98.00;;;;;;5093320;28;20649;-65
2021/10/25 01:18:37;;;;;;;1.30;1.07;;;4.10;98.00;;;;;;5093312;28;20490;-65
2021/10/25 01:21:05;;;;;;;1.73;1.23;;;4.10;98.00;;;;;;5093153;28;20465;-65
2021/10/25 01:23:32;;;;;;;2.13;1.87;;;4.10;98.00;;;;;;5092977;28;21150;-65
2021/10/25 01:26:00;;;;;;;1.70;1.37;;;3.90;98.00;;;;;;5093150;28;20939;-65
2021/10/25 01:28:27;;;;;;;1.20;1.00;;;3.90;98.00;;;;;;5091868;28;20457;-65
2021/10/25 01:30:54;;;;;;;3.50;1.70;;;4.00;98.00;;;;;;5092900;28;20931;-65
2021/10/25 01:33:21;;;;;;;1.50;1.20;;;3.80;98.00;;;;;;5091828;28;20542;-65
2021/10/25 01:35:49;;;;;;;1.30;1.17;;;3.70;98.00;;;;;;5092877;28;20518;-64
2021/10/25 01:38:18;;;;;;;1.20;0.90;;;3.70;98.00;;;;;;5092902;28;20820;-65
2021/10/25 01:40:47;;;;;;;1.53;1.50;;;3.50;98.00;;;;;;5092662;28;21104;-65
2021/10/25 01:43:14;;;;;;;2.03;1.80;;;3.60;98.00;;;;;;5092797;28;20479;-65
2021/10/25 01:45:41;;;;;;;4.50;1.77;;;3.60;98.00;;;;;;5092593;28;20529;-65
2021/10/25 01:48:08;;;;;;;1.20;1.10;;;3.80;98.00;;;;;;5092318;28;21030;-65
2021/10/25 01:50:35;;;;;;;1.40;1.10;;;3.80;98.00;;;;;;5092268;28;20460;-66
2021/10/25 01:53:05;;;;;;;1.30;1.10;;;4.00;98.00;;;;;;5092707;28;20855;-65
2021/10/25 01:55:34;;;;;;;1.53;1.43;;;3.80;98.00;;;;;;5092752;28;20553;-65
2021/10/25 01:58:01;;;;;;;2.03;1.30;;;3.90;98.00;;;;;;5092761;28;20514;-65
2021/10/25 02:00:28;;;;;;;1.20;1.10;;;3.80;98.00;;;;;;5092783;28;20500;-65
2021/10/25 02:02:55;;;;;;;1.20;1.20;;;3.80;98.00;;;;;;5092632;28;20510;-65
2021/10/25 02:05:22;;;;;;;1.50;1.40;;;3.70;98.00;;;;;;5092450;28;20468;-64
2021/10/25 02:07:50;;;;;;;1.20;1.13;;;3.50;98.00;;;;;;5092420;28;20938;-65
2021/10/25 02:10:17;;;;;;;3.40;1.57;;;3.60;98.00;;;;;;5092248;28;20459;-65
2021/10/25 02:12:58;;;;;;;1.37;1.33;;;3.60;98.00;;;;;;5092139;28;20460;-65
2021/10/25 02:15:25;;;;;;;1.20;1.00;;;3.40;98.00;;;;;;5092354;28;20817;-65
2021/10/25 02:17:52;;;;;;;1.20;1.10;;;3.60;98.00;;;;;;5092116;28;20882;-65
2021/10/25 02:20:20;;;;;;;1.30;1.30;;;3.70;98.00;;;;;;5092064;28;20451;-65
2021/10/25 02:22:47;;;;;;;2.70;1.53;;;3.90;98.00;;;;;;5091902;28;20584;-65
2021/10/25 02:25:14;;;;;;;6.73;2.03;;;3.80;98.00;;;;;;5092196;28;20492;-66
2021/10/25 02:27:41;;;;;;;1.20;1.10;;;3.70;98.00;;;;;;5090646;28;20464;-65
2021/10/25 02:30:10;;;;;;;1.20;1.20;;;3.70;98.00;;;;;;5091958;28;20504;-65
2021/10/25 02:32:38;;;;;;;1.20;1.10;;;3.80;98.00;;;;;;5091974;28;20507;-65
2021/10/25 02:35:06;;;;;;;3.00;1.23;;;3.80;98.00;;;;;;5091908;28;20807;-65
2021/10/25 02:37:33;;;;;;;1.20;1.10;;;3.70;98.00;;;;;;5091144;28;20515;-65
2021/10/25 02:40:00;;;;;;;1.20;1.10;;;3.80;98.00;;;;;;5092027;28;20458;-64
2021/10/25 02:42:28;;;;;;;1.90;1.30;;;3.60;98.00;;;;;;5091688;28;20480;-64
2021/10/25 02:44:55;;;;;;;1.47;1.43;;;3.40;98.00;;;;;;5091764;28;20461;-65
2021/10/25 02:47:23;;;;;;;1.20;1.10;;;3.30;98.00;;;;;;5091771;28;20513;-64
2021/10/25 02:49:50;;;;;;;1.80;1.27;;;3.30;98.00;;;;;;5091761;28;20491;-65
2021/10/25 02:52:18;;;;;;;1.80;1.43;;;3.40;98.00;;;;;;5091768;28;20478;-65
2021/10/25 02:54:45;;;;;;;1.20;1.00;;;3.20;98.00;;;;;;5091993;28;20468;-65
2021/10/25 02:57:15;;;;;;;1.30;1.30;;;3.40;98.00;;;;;;5091646;28;20455;-64
2021/10/25 02:59:43;;;;;;;1.60;1.10;;;3.50;98.00;;;;;;5091715;28;20452;-64
2021/10/25 03:02:11;;;;;;;1.30;1.30;;;3.50;98.00;;;;;;5091098;28;20505;-64
2021/10/25 03:04:40;;;;;;;1.50;1.50;;;3.30;98.00;;;;;;5090644;28;20465;-64
2021/10/25 03:07:09;;;;;;;1.77;1.30;;;3.30;98.00;;;;;;5091081;28;20568;-65
2021/10/25 03:09:36;;;;;;;1.20;1.17;;;3.40;98.00;;;;;;5091572;28;20452;-64
2021/10/25 03:12:05;;;;;;;1.77;1.30;;;3.40;98.00;;;;;;5091579;28;20448;-64
2021/10/25 03:14:32;;;;;;;1.30;1.10;;;3.40;98.00;;;;;;5091782;28;20942;-65
2021/10/25 03:16:59;;;;;;;1.20;1.10;;;3.40;98.00;;;;;;5091925;28;20451;-65
2021/10/25 03:19:27;;;;;;;1.50;1.10;;;3.40;98.00;;;;;;5091769;28;20457;-65
2021/10/25 03:21:55;;;;;;;1.20;1.00;;;3.40;98.00;;;;;;5091925;28;20466;-64
2021/10/25 03:24:22;;;;;;;1.20;1.00;;;3.60;98.00;;;;;;5091783;28;21012;-65
2021/10/25 03:26:49;;;;;;;3.17;1.40;;;3.70;98.00;;;;;;5091597;28;20518;-65
2021/10/25 03:29:17;;;;;;;3.20;1.20;;;3.80;98.00;;;;;;5090321;28;21031;-65
2021/10/25 03:31:44;;;;;;;1.40;1.20;;;3.80;98.00;;;;;;5090164;28;20558;-64
2021/10/25 03:34:11;;;;;;;1.20;1.00;;;3.80;98.00;;;;;;5091354;28;20456;-65
2021/10/25 03:36:40;;;;;;;1.20;1.20;;;3.60;98.00;;;;;;5091332;28;20506;-64
2021/10/25 03:39:09;;;;;;;2.17;1.23;;;3.50;98.00;;;;;;5091339;28;20450;-65
2021/10/25 03:41:38;;;;;;;1.20;1.10;;;3.60;98.00;;;;;;5089939;28;20519;-64
2021/10/25 03:44:10;;;;;;;1.60;1.30;;;3.60;98.00;;;;;;5091126;28;20875;-65
2021/10/25 03:46:41;;;;;;;3.30;1.40;;;3.40;98.00;;;;;;5091359;28;20457;-64
2021/10/25 03:49:13;;;;;;;1.30;1.10;;;3.40;98.00;;;;;;5091514;28;20452;-65
2021/10/25 03:51:42;;;;;;;1.40;1.13;;;3.50;98.00;;;;;;5094504;28;20450;-65
2021/10/25 03:54:28;;;;;;;1.83;1.47;;;3.60;98.00;;;;;;5094547;28;21023;-64
2021/10/25 04:03:05;;;;;;;2.33;1.67;;;3.40;98.00;;;;;;5129428;28;20451;-64
2021/10/25 04:27:29;;;;;;;1.30;1.20;;;3.40;98.00;;;;;;5128599;28;20778;-64
2021/10/25 04:30:02;;;;;;;1.40;1.13;;;3.40;98.00;;;;;;5129658;28;20446;-64
2021/10/25 04:32:31;;;;;;;2.13;1.57;;;3.40;98.00;;;;;;5129574;28;20988;-64
2021/10/25 04:34:58;;;;;;;1.30;1.10;;;3.50;98.00;;;;;;5129627;28;20459;-64
2021/10/25 04:37:25;;;;;;;4.33;1.90;;;3.30;98.00;;;;;;5129593;28;20941;-64
2021/10/25 04:39:52;;;;;;;3.50;2.13;;;3.00;98.00;;;;;;5129670;28;21020;-64
2021/10/25 04:42:29;;;;;;;1.20;1.10;;;3.00;98.00;;;;;;5129716;27;20537;-64
2021/10/25 04:44:56;;;;;;;1.20;1.07;;;3.00;98.00;;;;;;5129560;28;20451;-64
2021/10/25 04:47:24;;;;;;;1.37;1.10;;;3.10;98.00;;;;;;5129600;28;20953;-65
2021/10/25 04:49:52;;;;;;;2.80;1.70;;;3.20;98.00;;;;;;5129149;28;20521;-64
2021/10/25 04:52:20;;;;;;;1.20;1.07;;;3.30;98.00;;;;;;5129223;28;20452;-64
2021/10/25 04:54:47;;;;;;;1.20;1.00;;;3.30;98.00;;;;;;5128671;27;20537;-64
2021/10/25 04:57:14;;;;;;;1.37;1.30;;;3.40;98.00;;;;;;5129081;28;20488;-64
2021/10/25 04:59:41;;;;;;;2.27;1.70;;;3.20;98.00;;;;;;5128965;28;20546;-64
2021/10/25 05:02:08;;;;;;;1.40;1.20;;;2.90;98.00;;;;;;5128936;27;20515;-64
2021/10/25 05:04:35;;;;;;;1.20;1.10;;;2.90;98.00;;;;;;5128708;28;20459;-64
2021/10/25 05:07:04;;;;;;;1.30;1.10;;;3.00;98.00;;;;;;5128680;28;21042;-64
2021/10/25 05:09:31;;;;;;;3.10;1.20;;;3.10;98.00;;;;;;5124299;27;20456;-64
2021/10/25 05:11:58;;;;;;;1.20;1.10;;;3.20;98.00;;;;;;5113722;28;20460;-64
2021/10/25 05:14:25;;;;;;;1.80;1.50;;;3.20;98.00;;;;;;5114625;28;20552;-64
2021/10/25 05:16:53;;;;;;;3.00;1.60;;;3.20;98.00;;;;;;5114677;28;20495;-64
2021/10/25 05:19:20;;;;;;;2.80;1.57;;;3.30;98.00;;;;;;5114905;28;20559;-64
2021/10/25 05:21:47;;;;;;;1.30;1.20;;;3.30;98.00;;;;;;5114700;28;20455;-64
2021/10/25 05:24:16;;;;;;;1.40;1.23;;;3.00;98.00;;;;;;5114801;28;20455;-64
2021/10/25 05:26:43;;;;;;;1.30;1.10;;;3.00;98.00;;;;;;5114695;28;20959;-65
2021/10/25 05:29:10;;;;;;;2.53;1.87;;;2.80;98.00;;;;;;5114870;28;20514;-64
2021/10/25 05:31:37;;;;;;;1.60;1.40;;;2.60;98.00;;;;;;5114511;28;20459;-64
2021/10/25 05:34:04;;;;;;;2.13;1.53;;;2.50;98.00;;;;;;5114701;28;20984;-64
2021/10/25 05:36:31;;;;;;;2.40;1.47;;;2.40;98.00;;;;;;5114630;28;20483;-65
2021/10/25 05:38:58;;;;;;;1.93;1.90;;;2.50;98.00;;;;;;5114694;28;20515;-64
2021/10/25 05:41:28;;;;;;;1.20;1.00;;;2.50;98.00;;;;;;5114450;28;20487;-64
2021/10/25 05:43:56;;;;;;;1.97;1.57;;;2.50;98.00;;;;;;5114492;28;20455;-64
2021/10/25 05:46:24;;;;;;;1.20;1.10;;;2.70;98.00;;;;;;5114448;28;20451;-64
2021/10/25 05:48:54;;;;;;;1.20;1.10;;;2.90;98.00;;;;;;5114390;28;20558;-64
2021/10/25 05:51:21;;;;;;;2.47;1.50;;;2.80;98.00;;;;;;5114448;28;20454;-64
2021/10/25 05:53:48;;;;;;;1.20;1.07;;;2.60;98.00;;;;;;5114370;28;20451;-64
2021/10/25 05:56:15;;;;;;;3.10;1.33;;;2.50;98.00;;;;;;5114342;28;20459;-64
2021/10/25 05:58:43;;;;;;;1.20;1.10;;;2.50;98.00;;;;;;5114086;28;20543;-64
2021/10/25 06:01:13;;;;;;;3.73;1.83;;;2.60;98.00;;;;;;5114304;28;20593;-64
2021/10/25 06:03:42;;;;;;;2.70;1.50;;;2.70;98.00;;;;;;5114426;28;20459;-64
2021/10/25 06:06:09;;;;;;;2.30;1.60;;;2.60;98.00;;;;;;5114018;28;20530;-63
2021/10/25 06:08:39;;;;;;;1.57;1.47;;;2.50;98.00;;;;;;5114086;28;20455;-64
2021/10/25 06:11:06;;;;;;;3.83;1.33;;;2.50;98.00;;;;;;5114179;28;20544;-64
2021/10/25 06:13:37;;;;;;;1.20;1.00;;;2.40;98.00;;;;;;5113980;28;20512;-64
2021/10/25 06:16:11;;;;;;;1.20;1.00;;;2.30;98.00;;;;;;5113960;28;20455;-64
2021/10/25 06:18:39;;;;;;;1.30;1.17;;;2.40;98.00;;;;;;5113586;28;20526;-64
2021/10/25 06:21:06;;;;;;;3.30;1.43;;;2.50;98.00;;;;;;5111120;28;20451;-65
2021/10/25 06:23:34;;;;;;;1.97;1.30;;;2.50;98.00;;;;;;5113410;28;20511;-65
2021/10/25 06:26:02;;;;;;;1.63;1.30;;;2.60;98.00;;;;;;5113489;28;20457;-65
2021/10/25 06:28:29;;;;;;;6.30;1.60;;;2.80;98.00;;;;;;5113394;28;20455;-64
2021/10/25 06:30:59;;;;;;;1.20;1.10;;;2.90;98.00;;;;;;5113501;28;20516;-64
2021/10/25 06:33:28;;;;;;;2.13;1.40;;;3.00;98.00;;;;;;5113498;28;20812;-64
2021/10/25 06:36:03;;;;;;;2.33;1.60;;;3.00;98.00;;;;;;5113465;27;20487;-65
2021/10/25 06:38:35;;;;;;;2.73;1.30;;;3.10;98.00;;;;;;5113377;28;20501;-64
2021/10/25 06:41:03;;;;;;;1.50;1.20;;;3.00;98.00;;;;;;5113273;28;20466;-64
2021/10/25 06:43:30;;;;;;;1.87;1.80;;;3.10;98.00;;;;;;5113370;28;20991;-65
2021/10/25 06:46:00;;;;;;;1.40;1.30;;;3.10;98.00;;;;;;5112972;28;20447;-65
2021/10/25 06:48:30;;;;;;;1.20;1.03;;;3.20;98.00;;;;;;5112996;28;20486;-65
2021/10/25 06:50:57;;;;;;;3.43;1.93;;;3.40;98.00;;;;;;5112879;28;20455;-65
2021/10/25 06:53:24;;;;;;;2.80;1.67;;;3.40;98.00;;;;;;5113088;28;20501;-64
2021/10/25 06:55:51;;;;;;;1.60;1.50;;;3.30;98.00;;;;;;5113082;28;20455;-65
2021/10/25 06:58:21;;;;;;;2.37;1.30;;;3.20;98.00;;;;;;5112972;28;20456;-64
2021/10/25 07:00:48;;;;;;;1.50;1.47;;;3.00;98.00;;;;;;5112780;28;20456;-65
2021/10/25 07:03:16;;;;;;;3.33;1.77;;;2.90;98.00;;;;;;5113075;28;20885;-65
2021/10/25 07:05:45;;;;;;;1.53;1.27;;;2.90;98.00;;;;;;5112767;28;20483;-65
2021/10/25 07:08:14;;;;;;;4.80;1.50;;;2.90;98.00;;;;;;5112961;28;20455;-65
2021/10/25 07:10:41;;;;;;;2.50;1.73;;;3.00;98.00;;;;;;5111487;28;20516;-65
2021/10/25 07:13:09;;;;;;;1.33;1.20;;;3.20;98.00;;;;;;5112789;28;20449;-65
2021/10/25 07:15:43;;;;;;;1.53;1.30;;;3.30;98.00;;;;;;5112836;28;20456;-64
2021/10/25 07:18:14;;;;;;;1.70;1.60;;;3.40;98.00;;;;;;5112651;28;20513;-65
2021/10/25 08:02:19;;;;;;;18.50;1.93;;;4.90;98.00;;;;;;5114657;28;20436;-66
2021/10/25 08:07:37;;;;;;;2.90;1.83;;;5.30;98.00;;;;;;5119689;28;21658;-66
2021/10/25 08:10:11;;;;;;;4.10;3.23;;;5.60;98.00;;;;;;5119471;28;20466;-66
2021/10/25 08:12:45;;;;;;;1.90;1.60;;;5.70;98.00;;;;;;5119878;28;20464;-66
2021/10/25 08:15:19;;;;;;;2.03;1.43;;;5.70;98.00;;;;;;5119955;28;20890;-66
2021/10/25 08:17:50;;;;;;;6.03;1.80;;;5.80;98.00;;;;;;5118958;28;20546;-66
2021/10/25 08:20:18;;;;;;;4.57;3.40;;;5.90;98.00;;;;;;5124469;28;20487;-66
2021/10/25 08:22:45;;;;;;;1.73;1.50;;;5.80;98.00;;;;;;5113225;28;20457;-67
2021/10/25 08:25:13;;;;;;;1.40;1.27;;;5.90;98.00;;;;;;5116656;28;20786;-66
2021/10/25 08:27:42;;;;;;;2.10;1.50;;;5.80;98.00;;;;;;5126552;28;20474;-66
2021/10/25 08:30:12;;;;;;;2.03;1.63;;;5.90;98.00;;;;;;5128103;27;20573;-65
2021/10/25 08:32:47;;;;;;;1.40;1.40;;;5.90;98.00;;;;;;5113316;28;20456;-65
2021/10/25 08:35:37;;;;;;;3.73;2.07;;;5.90;98.00;;;;;;5126686;28;20503;-65
2021/10/25 08:40:52;;;;;;;1.20;1.00;;;6.20;98.00;;;;;;5118754;28;20616;-65
2021/10/25 08:43:19;;;;;;;1.80;1.47;;;6.40;98.00;;;;;;5110252;28;20569;-65
2021/10/25 08:45:50;;;;;;;1.60;1.50;;;6.50;98.00;;;;;;5121566;27;20483;-67
2021/10/25 08:48:17;;;;;;;1.50;1.40;;;6.60;98.00;;;;;;5116954;27;20468;-66
2021/10/25 08:50:44;;;;;;;2.30;1.57;;;6.60;98.00;;;;;;5121444;27;20464;-66
2021/10/25 08:53:11;;;;;;;1.63;1.50;;;6.50;98.00;;;;;;5131745;27;20540;-66
2021/10/25 08:55:38;;;;;;;2.60;1.60;;;6.40;98.00;;;;;;5111988;27;20466;-65
2021/10/25 08:58:07;;;;;;;1.63;1.53;;;6.50;98.00;;;;;;5130037;27;20538;-66
2021/10/25 09:00:40;;;;;;;1.20;1.10;;;6.60;98.00;;;;;;5112292;27;20488;-66
2021/10/25 09:03:07;;;;;;;2.33;1.90;;;6.80;98.00;;;;;;5123548;27;20518;-66
2021/10/25 09:05:35;;;;;;;3.30;1.60;;;7.00;98.00;;;;;;5122858;27;20455;-65
2021/10/25 09:08:04;;;;;;;3.97;1.90;;;7.10;98.00;;;;;;5124677;27;20464;-65
2021/10/25 09:10:34;;;;;;;1.40;1.40;;;7.10;98.00;;;;;;5120604;27;20454;-66
2021/10/25 09:13:02;;;;;;;2.27;2.07;;;7.20;98.00;;;;;;5102459;27;20463;-65
2021/10/25 09:15:34;;;;;;;1.50;1.30;;;7.40;98.00;;;;;;5116178;27;20462;-65
2021/10/25 09:18:08;;;;;;;1.20;1.20;;;7.50;98.00;;;;;;5109700;27;20459;-65
2021/10/25 09:20:43;;;;;;;1.30;1.10;;;7.70;98.00;;;;;;5125854;27;20487;-65
2021/10/25 09:23:49;;;;;;;1.40;1.30;;;7.80;98.00;;;;;;5125533;27;20462;-65
2021/10/25 09:26:19;;;;;;;1.40;1.33;;;7.90;98.00;;;;;;5112858;27;20500;-66
2021/10/25 09:28:50;;;;;;;10.63;2.33;;;8.00;98.00;;;;;;5114361;27;20455;-66
2021/10/25 09:31:23;;;;;;;1.57;1.47;;;8.10;98.00;;;;;;5122459;27;20456;-66
2021/10/25 09:33:52;;;;;;;2.13;1.70;;;8.10;98.00;;;;;;5105955;27;20461;-65
2021/10/25 09:36:20;;;;;;;3.20;2.20;;;8.20;98.00;;;;;;5123093;27;20449;-66
2021/10/25 09:38:57;;;;;;;1.50;1.30;;;8.20;98.00;;;;;;5130777;27;20460;-66
2021/10/25 09:49:38;;;;;;;1.50;1.10;;;8.50;98.00;;;;;;5121126;27;20458;-64
2021/10/25 09:52:08;;;;;;;1.70;1.33;;;8.60;98.00;;;;;;5112987;27;20487;-66
2021/10/25 09:54:36;;;;;;;1.47;1.40;;;8.80;98.00;;;;;;5130731;27;20448;-65
2021/10/25 09:57:09;;;;;;;2.63;1.70;;;9.00;98.00;;;;;;5113277;27;20460;-66
2021/10/25 09:59:47;;;;;;;2.50;2.30;;;9.20;98.00;;;;;;5129596;27;20488;-65
2021/10/25 10:02:18;;;;;;;4.70;2.10;;;9.30;98.00;;;;;;5105881;27;20927;-65
2021/10/25 10:04:47;;;;;;;1.50;1.40;;;9.50;98.00;;;;;;5112480;27;20456;-65
2021/10/25 10:07:16;;;;;;;1.93;1.30;;;9.70;98.00;;;;;;5121974;27;20833;-63
2021/10/25 10:09:44;;;;;;;2.70;2.10;;;9.90;98.00;;;;;;5122620;27;20483;-65
2021/10/25 10:12:18;;;;;;;3.87;1.87;;;10.00;98.00;;;;;;5121458;27;20452;-66
2021/10/25 10:14:48;;;;;;;1.80;1.43;;;10.00;98.00;;;;;;5121062;27;20518;-66
2021/10/25 10:17:18;;;;;;;2.17;1.80;;;10.00;98.00;;;;;;5123931;27;20459;-65
2021/10/25 10:19:48;;;;;;;1.20;1.10;;;10.20;98.00;;;;;;5129289;27;20835;-65
2021/10/25 10:22:17;;;;;;;2.00;1.70;;;10.30;98.00;;;;;;5118294;27;20487;-64
2021/10/25 10:24:48;;;;;;;1.30;1.27;;;10.40;98.00;;;;;;5121470;27;20527;-65
2021/10/25 10:27:20;;;;;;;2.30;1.70;;;10.60;98.00;;;;;;5115900;27;20458;-65
2021/10/25 10:29:52;;;;;;;3.40;1.67;;;10.70;98.00;;;;;;5117199;27;20967;-65
2021/10/25 10:32:22;;;;;;;1.97;1.30;;;10.70;98.00;;;;;;5112489;27;20465;-65
2021/10/25 10:34:52;;;;;;;1.70;1.70;;;10.80;98.00;;;;;;5121326;27;20450;-65
2021/10/25 10:37:23;;;;;;;2.70;2.07;;;10.90;98.00;;;;;;5121370;27;21025;-65
2021/10/25 10:40:06;;;;;;;3.07;2.33;;;11.20;98.00;;;;;;5117266;27;20485;-65
2021/10/25 10:42:36;;;;;;;2.27;1.57;;;11.50;98.00;;;;;;5121974;27;20843;-64
2021/10/25 10:45:08;;;;;;;1.63;1.60;;;11.80;98.00;;;;;;5118996;27;20504;-65
2021/10/25 10:47:43;;;;;;;1.50;1.43;;;12.10;98.00;;;;;;5120228;27;20462;-65
2021/10/25 10:50:21;;;;;;;2.00;1.93;;;12.40;98.00;;;;;;5111164;27;20531;-66
2021/10/25 10:52:58;;;;;;;3.00;2.10;;;12.70;98.00;;;;;;5112394;27;20453;-65
2021/10/25 10:55:27;;;;;;;2.43;1.50;;;12.80;98.00;;;;;;5105177;27;20478;-65
2021/10/25 11:00:35;;;;;;;1.87;1.47;;;12.80;98.00;;;;;;5122394;27;20489;-65
2021/10/25 11:03:13;;;;;;;3.77;2.60;;;12.80;98.00;;;;;;5120046;27;20543;-65
2021/10/25 11:05:42;;;;;;;2.03;1.93;;;13.00;98.00;;;;;;5120503;27;20450;-65
2021/10/25 11:08:11;;;;;;;4.70;2.87;;;13.30;98.00;;;;;;5128544;27;20448;-66
2021/10/25 11:10:40;;;;;;;2.90;2.07;;;13.70;98.00;;;;;;5120672;27;20451;-65
2021/10/25 11:13:13;;;;;;;1.97;1.80;;;14.20;98.00;;;;;;5124236;27;20522;-65
2021/10/25 11:15:52;;;;;;;1.80;1.70;;;14.70;98.00;;;;;;5126755;27;20453;-65
2021/10/25 11:18:24;;;;;;;2.47;1.80;;;15.10;98.00;;;;;;5113706;27;20544;-65
2021/10/25 11:20:53;;;;;;;2.17;2.07;;;15.60;98.00;;;;;;5119954;27;20492;-65
2021/10/25 11:23:20;;;;;;;3.50;2.33;;;16.00;98.00;;;;;;5112058;27;20936;-65
2021/10/25 11:25:47;;;;;;;2.80;1.80;;;16.30;98.00;;;;;;5128743;27;20455;-65
2021/10/25 11:28:17;;;;;;;4.07;2.67;;;16.60;98.00;;;;;;5114975;27;21068;-66
2021/10/25 11:30:44;;;;;;;2.00;1.90;;;16.80;98.00;;;;;;5107100;28;20464;-65
2021/10/25 11:33:11;;;;;;;2.80;2.30;;;17.10;98.00;;;;;;5101178;28;20458;-65
2021/10/25 11:35:56;;;;;;;3.73;2.37;;;17.30;97.10;;;;;;5091397;28;20494;-64
2021/10/25 11:38:23;;;;;;;3.80;2.63;;;17.30;96.40;;;;;;5090962;28;20455;-65
2021/10/25 11:40:54;;;;;;;2.43;2.03;;;17.40;96.30;;;;;;5099104;28;20527;-65
2021/10/25 11:43:29;;;;;;;2.17;1.70;;;17.40;96.00;;;;;;5109203;28;20466;-65
2021/10/25 11:45:57;;;;;;;3.90;2.30;;;17.60;96.50;;;;;;5099428;28;20457;-66
2021/10/25 11:48:33;;;;;;;2.87;2.03;;;17.40;96.20;;;;;;5108293;28;20466;-66
2021/10/25 11:51:02;;;;;;;1.73;1.73;;;17.10;96.20;;;;;;5098519;28;20454;-64
2021/10/25 11:53:30;;;;;;;3.07;1.97;;;16.90;96.30;;;;;;5111889;28;20451;-66
2021/10/25 11:55:57;;;;;;;3.03;1.70;;;16.80;97.50;;;;;;5111993;28;20537;-65
2021/10/25 11:58:27;;;;;;;2.23;1.83;;;17.10;96.70;;;;;;5111982;28;20461;-65
2021/10/25 12:01:04;;;;;;;2.40;1.93;;;17.00;96.50;;;;;;5111781;28;21015;-65
2021/10/25 12:03:31;;;;;;;3.90;2.10;;;17.30;98.00;;;;;;5112072;28;20996;-66
2021/10/25 12:05:58;;;;;;;4.10;2.50;;;17.40;98.00;;;;;;5112106;28;20455;-65
2021/10/25 12:08:27;;;;;;;2.80;1.80;;;17.40;98.00;;;;;;5111822;28;20451;-65
2021/10/25 12:10:56;;;;;;;2.07;1.83;;;17.20;95.40;;;;;;5111674;28;20508;-69
2021/10/25 12:13:23;;;;;;;2.67;1.83;;;17.20;96.90;;;;;;5111710;28;20451;-68
2021/10/25 12:15:54;;;;;;;1.90;1.70;;;17.30;94.80;;;;;;5112167;28;20477;-68
2021/10/25 12:18:21;;;;;;;2.00;1.43;;;17.20;93.60;;;;;;5112074;28;20967;-69
2021/10/25 12:20:50;;;;;;;2.20;1.70;;;17.20;94.40;;;;;;5114618;28;20568;-68
2021/10/25 12:23:18;;;;;;;2.17;1.50;;;17.10;93.50;;;;;;5116034;28;20454;-68
2021/10/25 12:25:54;;;;;;;2.00;1.80;;;17.10;93.10;;;;;;5116196;28;20531;-68
2021/10/25 12:28:23;;;;;;;3.40;1.83;;;17.30;93.10;;;;;;5116071;28;20454;-68
2021/10/25 12:30:52;;;;;;;4.37;2.00;;;17.50;93.30;;;;;;5115741;28;20474;-68
2021/10/25 12:33:21;;;;;;;2.43;2.00;;;17.70;93.10;;;;;;5116097;28;20583;-68
2021/10/25 12:35:49;;;;;;;1.50;1.50;;;17.60;91.90;;;;;;5116005;28;20463;-69
2021/10/25 12:38:18;;;;;;;3.43;1.80;;;17.60;93.60;;;;;;5115863;28;20538;-68
2021/10/25 12:40:52;;;;;;;4.67;1.90;;;17.80;94.60;;;;;;5115704;28;20528;-68
2021/10/25 12:43:20;;;;;;;1.90;1.60;;;17.80;93.70;;;;;;5115790;28;20461;-68
2021/10/25 12:45:58;;;;;;;1.40;1.40;;;17.80;95.00;;;;;;5114765;28;20937;-69
2021/10/25 12:48:26;;;;;;;2.43;2.03;;;17.90;94.80;;;;;;5115712;28;20450;-68
2021/10/25 12:51:02;;;;;;;2.40;2.20;;;18.00;95.00;;;;;;5115594;28;20520;-69
2021/10/25 12:53:46;;;;;;;2.43;1.63;;;18.10;95.20;;;;;;5115785;28;21008;-68
2021/10/25 12:56:24;;;;;;;3.33;1.40;;;18.10;94.30;;;;;;5112045;28;20534;-69
2021/10/25 12:58:59;;;;;;;2.73;2.00;;;17.90;94.90;;;;;;5115370;28;20467;-68
2021/10/25 13:01:27;;;;;;;2.67;1.70;;;17.80;97.60;;;;;;5115236;28;20478;-69
2021/10/25 13:03:57;;;;;;;2.73;1.93;;;17.80;98.00;;;;;;5115318;28;20519;-68
2021/10/25 13:06:28;;;;;;;2.77;1.80;;;17.80;98.00;;;;;;5115320;28;20601;-68
2021/10/25 13:08:59;;;;;;;1.90;1.43;;;17.80;98.00;;;;;;5115309;28;20545;-68
2021/10/25 13:11:28;;;;;;;1.70;1.40;;;17.90;98.00;;;;;;5114948;28;20447;-70
2021/10/25 13:13:57;;;;;;;2.83;2.30;;;18.30;98.00;;;;;;5115100;28;20547;-68
2021/10/25 13:16:29;;;;;;;2.33;1.50;;;18.50;96.90;;;;;;5114985;28;20825;-68
2021/10/25 13:18:58;;;;;;;1.90;1.43;;;18.80;97.00;;;;;;5113899;28;20459;-70
2021/10/25 13:21:25;;;;;;;1.87;1.70;;;18.80;94.80;;;;;;5114629;28;20988;-69
2021/10/25 13:23:52;;;;;;;1.93;1.40;;;18.90;94.60;;;;;;5113908;28;20447;-69
2021/10/25 13:26:19;;;;;;;1.47;1.33;;;18.60;89.10;;;;;;5114949;28;20475;-68
2021/10/25 13:28:48;;;;;;;1.50;1.50;;;18.40;93.90;;;;;;5114887;28;21237;-68
2021/10/25 13:31:15;;;;;;;1.87;1.40;;;18.30;93.60;;;;;;5114345;28;20483;-69
2021/10/25 13:33:42;;;;;;;1.60;1.47;;;18.10;93.20;;;;;;5113605;28;20455;-68
2021/10/25 13:36:09;;;;;;;1.60;1.20;;;17.90;95.10;;;;;;5114787;28;20899;-68
2021/10/25 13:38:36;;;;;;;1.80;1.60;;;17.90;95.90;;;;;;5114531;28;20454;-69
2021/10/25 13:41:03;;;;;;;1.73;1.43;;;17.60;96.50;;;;;;5114531;28;20540;-68
2021/10/25 13:43:31;;;;;;;1.43;1.30;;;17.40;98.00;;;;;;5114541;28;20452;-68
2021/10/25 13:45:59;;;;;;;1.80;1.60;;;17.20;98.00;;;;;;5113352;28;20554;-68
2021/10/25 13:48:26;;;;;;;1.40;1.20;;;17.30;98.00;;;;;;5114361;28;20510;-70
2021/10/25 13:50:55;;;;;;;1.63;1.47;;;17.50;98.00;;;;;;5114504;28;20454;-69
2021/10/25 13:53:22;;;;;;;1.87;1.60;;;17.90;98.00;;;;;;5114439;28;20447;-69
2021/10/25 13:55:49;;;;;;;1.70;1.43;;;18.50;98.00;;;;;;5114352;28;20459;-68
2021/10/25 13:58:19;;;;;;;2.20;1.60;;;19.20;96.70;;;;;;5114116;28;20459;-68
2021/10/25 14:00:46;;;;;;;1.60;1.27;;;19.80;94.50;;;;;;5112943;28;20482;-68
2021/10/25 14:03:15;;;;;;;2.17;1.47;;;20.40;92.30;;;;;;5114311;28;20520;-68
2021/10/25 14:05:42;;;;;;;1.60;1.30;;;20.90;90.20;;;;;;5114215;28;20447;-69
2021/10/25 14:08:09;;;;;;;1.67;1.60;;;21.20;88.40;;;;;;5114166;28;20455;-68
2021/10/25 14:10:42;;;;;;;1.60;1.30;;;21.10;88.90;;;;;;5114070;28;20507;-68
2021/10/25 14:13:14;;;;;;;1.50;1.40;;;21.30;90.10;;;;;;5114132;28;20450;-68
2021/10/25 14:16:07;;;;;;;2.40;1.57;;;21.30;90.10;;;;;;5114372;28;20805;-68
2021/10/25 14:18:36;;;;;;;1.53;1.50;;;21.00;91.00;;;;;;5113925;28;20462;-68
2021/10/25 14:21:03;;;;;;;1.90;1.50;;;21.30;90.00;;;;;;5113929;28;20522;-68
2021/10/25 14:23:30;;;;;;;3.10;1.80;;;21.10;88.40;;;;;;5113496;28;20458;-68
2021/10/25 14:25:57;;;;;;;2.10;1.50;;;21.00;89.20;;;;;;5113514;28;20462;-68
2021/10/25 14:28:26;;;;;;;1.70;1.30;;;21.00;89.60;;;;;;5113428;28;20509;-69
2021/10/25 14:30:53;;;;;;;1.53;1.50;;;20.90;89.80;;;;;;5113088;28;20459;-68